Kennebec, South Dakota
Current Conditions -  °F | °C
As of 9:35 PM on Friday 19 Dec 2014 (Local Time) from K9V9 Reporting Station
Haze Haze  
Wind Chill: -7°   Ceiling: 700
Heat Index: -7°   Visibility: 1.7mi
Dew Point: -8°   Wind: 0mph
Humidity: 94%   Direction: NA
Pressure: 30"   Gusts: NA
Location:  43.9°N, 99.86°W
Report Text: K9V9 200335Z AUTO 00000KT 1 3/4SM BR VV007 M07/M08 A3000 RMK AO2 T10701078
Loading
Personal Weather Stations






























Interactive Weather Map New forecast layout! Learn more

10-Day Weather Forecast

Advertisements
Track Severe Weather on mobile